Time;durP1;ratioP1;P1;durP2;ratioP2;P2;SDS_P1;SDS_P2;PMS_P1;PMS_P2;Temp;Humidity;BMP_temperature;BMP_pressure;BME280_temperature;BME280_humidity;BME280_pressure;Samples;Min_cycle;Max_cycle;Signal;HPM_P1;HPM_P2
2022/08/30 00:01:01;;;;;;;6.53;3.40;;;;;;;17.04;90.29;99186.72;5114074;28;20048;-85
2022/08/30 00:01:58;;;;;;;4.47;3.05;;;;;;;16.98;90.01;99175.56;5113700;27;20055;-85
2022/08/30 00:04:25;;;;;;;6.55;3.90;;;;;;;16.97;90.20;99168.41;5111096;28;20047;-85
2022/08/30 00:06:51;;;;;;;5.03;3.30;;;;;;;16.94;90.58;99173.50;5113484;28;20051;-85
2022/08/30 00:09:18;;;;;;;5.47;3.00;;;;;;;16.93;92.14;99191.03;5114429;28;20056;-85
2022/08/30 00:11:46;;;;;;;7.97;3.50;;;;;;;16.66;93.01;99171.19;5114120;27;20495;-85
2022/08/30 00:14:15;;;;;;;3.97;3.13;;;;;;;16.73;92.59;99178.31;5113402;28;20069;-85
2022/08/30 00:16:42;;;;;;;5.43;3.40;;;;;;;16.68;93.64;99189.13;5113290;28;20096;-85
2022/08/30 00:19:09;;;;;;;7.45;3.42;;;;;;;16.74;92.35;99188.22;5113722;28;20269;-85
2022/08/30 00:21:38;;;;;;;5.65;2.90;;;;;;;16.71;91.97;99174.97;5113770;28;20051;-85
2022/08/30 00:24:05;;;;;;;5.88;3.38;;;;;;;16.74;92.30;99182.75;5113469;28;20051;-85
2022/08/30 00:26:31;;;;;;;4.43;3.20;;;;;;;16.62;92.71;99177.13;5113978;28;20052;-85
2022/08/30 00:28:59;;;;;;;10.13;3.55;;;;;;;16.47;93.09;99176.63;5113786;28;20071;-85
2022/08/30 00:31:26;;;;;;;7.40;3.55;;;;;;;16.46;93.43;99164.81;5112878;28;20043;-85
2022/08/30 00:33:55;;;;;;;5.22;3.40;;;;;;;16.36;94.45;99178.16;5113019;28;20154;-85
2022/08/30 00:36:22;;;;;;;6.27;3.47;;;;;;;16.37;94.80;99179.03;5113602;27;20044;-85
2022/08/30 00:38:48;;;;;;;8.48;3.65;;;;;;;16.34;94.96;99193.19;5113812;28;20159;-85
2022/08/30 00:41:16;;;;;;;5.63;3.65;;;;;;;16.33;94.89;99192.34;5113553;28;20376;-85
2022/08/30 00:43:43;;;;;;;5.55;3.25;;;;;;;16.28;94.67;99168.31;5111666;27;20493;-85
2022/08/30 00:46:11;;;;;;;6.80;3.72;;;;;;;16.24;95.41;99185.44;5113499;28;20147;-85
2022/08/30 00:48:42;;;;;;;6.63;3.47;;;;;;;16.19;95.34;99183.38;5113694;28;20056;-86
2022/08/30 00:51:12;;;;;;;6.03;3.63;;;;;;;16.12;96.78;99190.78;5113683;27;20048;-85
2022/08/30 00:53:41;;;;;;;10.02;3.47;;;;;;;16.23;95.14;99179.13;5112172;28;20048;-84
2022/08/30 00:56:09;;;;;;;5.22;3.08;;;;;;;16.23;94.04;99181.88;5113603;28;20116;-85
2022/08/30 00:58:39;;;;;;;11.07;3.58;;;;;;;16.19;94.50;99180.63;5111859;27;20051;-85
2022/08/30 01:01:08;;;;;;;5.60;3.33;;;;;;;16.17;94.90;99198.34;5113424;28;20126;-85
2022/08/30 01:03:38;;;;;;;5.63;3.63;;;;;;;15.88;96.25;99173.22;5112103;28;20047;-85
2022/08/30 01:06:06;;;;;;;5.20;2.90;;;;;;;15.81;97.65;99195.19;5110869;28;20044;-85
2022/08/30 01:08:34;;;;;;;4.55;3.15;;;;;;;15.67;99.17;99196.25;5113037;28;20056;-85
2022/08/30 01:11:03;;;;;;;4.82;3.15;;;;;;;15.61;98.94;99188.91;5112709;28;20047;-85
2022/08/30 01:13:30;;;;;;;5.88;3.22;;;;;;;15.75;97.96;99187.81;5111929;28;20048;-85
2022/08/30 01:15:58;;;;;;;7.80;3.55;;;;;;;15.70;99.12;99183.00;5113010;28;20126;-85
2022/08/30 01:18:26;;;;;;;5.72;4.20;;;;;;;15.82;98.66;99185.91;5112794;28;20055;-85
2022/08/30 01:21:03;;;;;;;5.32;3.45;;;;;;;15.73;97.71;99170.72;5112900;28;20109;-85
2022/08/30 01:23:33;;;;;;;5.93;3.33;;;;;;;15.63;98.09;99190.38;5111680;28;20167;-85
2022/08/30 01:26:01;;;;;;;9.95;3.42;;;;;;;15.63;98.72;99197.78;5111645;28;20055;-85
2022/08/30 01:28:30;;;;;;;6.85;3.60;;;;;;;15.38;100.00;99184.78;5112560;28;20047;-85
2022/08/30 01:30:57;;;;;;;5.07;2.78;;;;;;;15.48;100.00;99222.69;5112743;27;20083;-85
2022/08/30 01:33:24;;;;;;;9.68;3.70;;;;;;;15.53;100.00;99199.06;5112131;28;20039;-85
2022/08/30 01:35:53;;;;;;;5.32;3.50;;;;;;;15.42;100.00;99207.97;5112451;28;20048;-85
2022/08/30 01:38:22;;;;;;;5.75;3.47;;;;;;;15.44;100.00;99200.34;5111707;28;20043;-85
2022/08/30 01:40:50;;;;;;;7.45;3.85;;;;;;;15.44;100.00;99194.03;5112668;28;20124;-85
2022/08/30 01:43:19;;;;;;;5.70;3.88;;;;;;;15.33;100.00;99193.66;5111541;28;20040;-85
2022/08/30 01:45:45;;;;;;;5.50;3.20;;;;;;;15.36;100.00;99192.38;5112230;28;20048;-85
2022/08/30 01:48:12;;;;;;;7.47;4.03;;;;;;;15.29;100.00;99200.59;5110124;28;20043;-85
2022/08/30 01:50:40;;;;;;;6.53;3.90;;;;;;;15.11;100.00;99206.75;5112404;27;20043;-85
2022/08/30 01:53:07;;;;;;;7.85;3.72;;;;;;;15.19;100.00;99200.22;5111625;28;20051;-86
2022/08/30 01:55:34;;;;;;;9.70;3.70;;;;;;;15.14;100.00;99189.06;5112502;27;20053;-84
2022/08/30 01:58:02;;;;;;;7.32;3.33;;;;;;;15.03;100.00;99171.41;5112314;28;20512;-84
2022/08/30 02:00:29;;;;;;;6.13;3.10;;;;;;;14.97;100.00;99199.63;5110522;28;20047;-84
2022/08/30 02:02:58;;;;;;;6.43;3.58;;;;;;;15.01;100.00;99185.31;5106725;28;20582;-84
2022/08/30 02:05:24;;;;;;;13.00;4.00;;;;;;;15.04;100.00;99201.31;5110034;28;20043;-84
2022/08/30 02:07:51;;;;;;;5.82;3.95;;;;;;;14.96;100.00;99192.47;5112196;28;20491;-84
2022/08/30 02:10:19;;;;;;;5.45;3.28;;;;;;;15.10;100.00;99194.13;5112151;28;20052;-84
2022/08/30 02:12:47;;;;;;;7.65;3.92;;;;;;;15.09;100.00;99192.44;5111137;28;20077;-84
2022/08/30 02:15:16;;;;;;;6.53;4.63;;;;;;;15.02;100.00;99202.56;5110833;28;20054;-84
2022/08/30 02:17:43;;;;;;;5.60;3.85;;;;;;;15.05;100.00;99193.91;5111768;28;20497;-84
2022/08/30 02:20:11;;;;;;;5.85;3.33;;;;;;;14.83;100.00;99176.91;5111791;28;20051;-85
2022/08/30 02:22:38;;;;;;;6.63;3.83;;;;;;;14.83;100.00;99191.44;5111427;28;20406;-85
2022/08/30 02:25:06;;;;;;;8.55;3.20;;;;;;;14.74;100.00;99195.44;5111768;27;20039;-84
2022/08/30 02:27:33;;;;;;;5.13;3.85;;;;;;;14.60;100.00;99193.72;5110274;28;20043;-84
2022/08/30 02:30:00;;;;;;;11.18;3.30;;;;;;;14.66;100.00;99181.97;5111728;28;20055;-84
2022/08/30 02:32:28;;;;;;;5.78;3.45;;;;;;;14.81;100.00;99179.00;5110686;28;20048;-84
2022/08/30 02:34:55;;;;;;;4.25;3.10;;;;;;;14.92;100.00;99188.47;5111439;28;20134;-84
2022/08/30 02:37:21;;;;;;;5.63;3.72;;;;;;;14.90;100.00;99190.59;5111758;28;20398;-84
2022/08/30 02:39:48;;;;;;;5.97;3.70;;;;;;;14.80;100.00;99164.50;5111422;28;20050;-84
2022/08/30 02:42:15;;;;;;;8.55;3.78;;;;;;;14.80;100.00;99172.72;5110187;28;20051;-85
2022/08/30 02:44:42;;;;;;;8.82;3.50;;;;;;;14.83;100.00;99185.97;5111234;28;20055;-84
2022/08/30 02:47:08;;;;;;;6.82;3.80;;;;;;;14.80;100.00;99180.09;5110343;28;20387;-84
2022/08/30 02:49:37;;;;;;;8.52;2.97;;;;;;;14.73;100.00;99184.72;5111217;28;20047;-85
2022/08/30 02:52:05;;;;;;;5.13;3.47;;;;;;;14.69;100.00;99184.28;5110815;28;20071;-84
2022/08/30 02:54:32;;;;;;;7.35;3.45;;;;;;;14.55;100.00;99177.09;5110019;28;20054;-84
2022/08/30 02:57:03;;;;;;;7.80;3.40;;;;;;;14.45;100.00;99164.69;5111156;28;20055;-85
2022/08/30 02:59:30;;;;;;;5.00;3.80;;;;;;;14.45;100.00;99177.50;5111482;28;20048;-85
2022/08/30 03:01:57;;;;;;;3.90;3.50;;;;;;;14.34;100.00;99170.78;5110416;28;20039;-85
2022/08/30 03:04:26;;;;;;;4.47;3.30;;;;;;;14.34;100.00;99188.03;5108971;28;20501;-85
2022/08/30 03:06:55;;;;;;;5.80;3.53;;;;;;;14.28;100.00;99191.59;5110224;28;20056;-86
2022/08/30 03:09:22;;;;;;;4.32;2.88;;;;;;;14.21;100.00;99184.44;5110821;28;20104;-86
2022/08/30 03:11:49;;;;;;;6.15;3.80;;;;;;;14.30;100.00;99202.31;5111223;28;20051;-86
2022/08/30 03:14:15;;;;;;;6.00;3.55;;;;;;;14.43;100.00;99201.50;5110867;28;20051;-86
2022/08/30 03:16:43;;;;;;;7.72;4.55;;;;;;;14.36;100.00;99190.53;5111543;28;20043;-86
2022/08/30 03:19:10;;;;;;;5.97;4.00;;;;;;;14.25;100.00;99189.28;5111084;28;20075;-86
2022/08/30 03:21:37;;;;;;;8.68;3.88;;;;;;;14.03;100.00;99172.22;5110242;28;20044;-86
2022/08/30 03:24:06;;;;;;;5.13;3.60;;;;;;;13.96;100.00;99182.28;5110334;28;20147;-86
2022/08/30 03:26:33;;;;;;;4.93;3.60;;;;;;;13.87;100.00;99180.81;5110728;28;20078;-86
2022/08/30 03:28:59;;;;;;;11.32;4.07;;;;;;;13.96;100.00;99177.66;5114124;28;20054;-85
2022/08/30 03:31:26;;;;;;;8.20;4.22;;;;;;;13.88;100.00;99160.59;5114608;28;20091;-85
2022/08/30 03:33:53;;;;;;;9.13;4.13;;;;;;;14.09;100.00;99176.00;5113754;28;20119;-85
2022/08/30 03:36:20;;;;;;;6.63;3.97;;;;;;;13.93;100.00;99174.50;5114912;27;20131;-86
2022/08/30 03:38:47;;;;;;;7.85;4.22;;;;;;;14.08;100.00;99177.91;5115037;28;20495;-86
2022/08/30 03:41:16;;;;;;;8.90;4.10;;;;;;;13.91;100.00;99161.06;5114809;28;20494;-85
2022/08/30 03:43:42;;;;;;;6.63;3.47;;;;;;;13.88;100.00;99175.13;5113123;28;20075;-86
2022/08/30 03:46:11;;;;;;;5.55;3.85;;;;;;;13.81;100.00;99157.88;5114789;28;20475;-86
2022/08/30 03:48:38;;;;;;;7.85;3.78;;;;;;;13.81;100.00;99157.88;5113140;28;20082;-85
2022/08/30 03:51:04;;;;;;;8.38;4.13;;;;;;;14.03;100.00;99168.63;5114187;28;20047;-86
2022/08/30 03:53:31;;;;;;;5.95;4.18;;;;;;;14.04;100.00;99162.97;5113437;28;20487;-86
2022/08/30 03:55:58;;;;;;;8.40;4.32;;;;;;;13.97;100.00;99140.22;5114751;28;20051;-86
2022/08/30 03:58:26;;;;;;;4.63;3.33;;;;;;;13.93;100.00;99152.66;5114429;28;20052;-86
2022/08/30 04:00:53;;;;;;;5.75;3.83;;;;;;;13.90;100.00;99166.72;5114789;27;20054;-86
2022/08/30 04:03:24;;;;;;;9.73;4.43;;;;;;;13.98;100.00;99172.00;5113979;28;20383;-86
2022/08/30 04:05:51;;;;;;;7.90;3.63;;;;;;;13.95;100.00;99172.41;5111286;28;20040;-86
2022/08/30 04:08:19;;;;;;;7.63;4.03;;;;;;;13.86;100.00;99163.53;5114615;28;20398;-86
2022/08/30 04:10:46;;;;;;;9.65;4.25;;;;;;;13.85;100.00;99174.69;5114143;28;20055;-86
2022/08/30 04:13:12;;;;;;;7.53;3.78;;;;;;;13.80;100.00;99167.97;5113617;28;20051;-85
2022/08/30 04:15:41;;;;;;;6.88;3.92;;;;;;;13.84;100.00;99173.03;5113973;28;20044;-86
2022/08/30 04:18:08;;;;;;;6.00;4.10;;;;;;;13.89;100.00;99171.34;5114274;28;20043;-86
2022/08/30 04:20:34;;;;;;;6.22;3.78;;;;;;;13.94;100.00;99187.09;5112985;28;20051;-86
2022/08/30 04:23:01;;;;;;;7.70;4.22;;;;;;;13.76;100.00;99168.56;5113509;28;20053;-85
2022/08/30 04:25:28;;;;;;;7.45;4.10;;;;;;;13.78;100.00;99175.50;5113477;28;20490;-86
2022/08/30 04:27:55;;;;;;;9.95;4.43;;;;;;;13.63;100.00;99174.84;5113342;28;20063;-86
2022/08/30 04:30:22;;;;;;;5.63;3.67;;;;;;;13.52;100.00;99165.34;5113649;28;20479;-86
2022/08/30 04:32:50;;;;;;;9.35;4.50;;;;;;;13.54;100.00;99154.22;5112577;28;20052;-86
2022/08/30 04:35:16;;;;;;;9.15;5.07;;;;;;;13.60;100.00;99164.31;5113565;27;20078;-85
2022/08/30 04:37:43;;;;;;;6.32;4.70;;;;;;;13.45;100.00;99159.84;5113621;28;20134;-84
2022/08/30 04:40:11;;;;;;;8.30;4.18;;;;;;;13.56;100.00;99179.41;5112632;28;20043;-84
2022/08/30 04:42:38;;;;;;;10.18;4.65;;;;;;;13.67;100.00;99167.94;5112848;28;20139;-84
2022/08/30 04:45:07;;;;;;;5.82;3.70;;;;;;;13.71;100.00;99166.44;5113480;28;20396;-85
2022/08/30 04:47:37;;;;;;;5.63;3.90;;;;;;;13.74;100.00;99179.69;5111404;28;20077;-85
2022/08/30 04:50:07;;;;;;;17.33;4.47;;;;;;;13.50;100.00;99161.13;5112477;28;20139;-84
2022/08/30 04:52:34;;;;;;;7.22;4.10;;;;;;;13.54;100.00;99173.34;5116145;28;20056;-84
2022/08/30 04:55:00;;;;;;;6.53;3.67;;;;;;;13.69;100.00;99174.00;5124594;28;20525;-84
2022/08/30 04:57:28;;;;;;;8.55;3.97;;;;;;;13.85;100.00;99189.22;5124888;28;20044;-84
2022/08/30 04:59:55;;;;;;;8.52;3.88;;;;;;;13.79;100.00;99177.22;5124474;28;20047;-84
2022/08/30 05:02:22;;;;;;;6.07;3.97;;;;;;;13.70;100.00;99202.16;5122689;28;20051;-85
2022/08/30 05:07:35;;;;;;;7.45;4.10;;;;;;;13.68;100.00;99198.81;5109706;28;20517;-85
2022/08/30 05:10:02;;;;;;;9.45;3.83;;;;;;;13.69;100.00;99201.34;5113943;28;20047;-84
2022/08/30 05:12:28;;;;;;;7.15;3.67;;;;;;;13.66;100.00;99196.28;5112813;28;20426;-84
2022/08/30 05:14:57;;;;;;;9.07;3.83;;;;;;;13.89;100.00;99215.06;5113599;28;20043;-85
2022/08/30 05:17:24;;;;;;;8.77;4.93;;;;;;;13.83;100.00;99195.91;5112307;28;20146;-85
2022/08/30 05:19:50;;;;;;;6.97;4.30;;;;;;;14.05;100.00;99218.50;5113165;28;20056;-84
2022/08/30 05:22:17;;;;;;;10.77;4.40;;;;;;;13.96;100.00;99223.28;5111831;28;20056;-85
2022/08/30 05:24:45;;;;;;;14.48;3.58;;;;;;;13.92;100.00;99206.44;5112596;28;20048;-85
2022/08/30 05:27:12;;;;;;;7.00;4.10;;;;;;;13.81;100.00;99202.41;5112605;28;20058;-84
2022/08/30 05:29:39;;;;;;;10.57;4.85;;;;;;;13.89;100.00;99206.03;5112265;27;20058;-84
2022/08/30 05:32:05;;;;;;;5.85;4.28;;;;;;;14.19;100.00;99224.81;5110311;28;20045;-84
2022/08/30 05:34:33;;;;;;;7.45;4.25;;;;;;;14.18;100.00;99220.38;5112485;28;20054;-85
2022/08/30 05:37:01;;;;;;;7.18;4.13;;;;;;;14.28;100.00;99218.09;5113239;28;20048;-85
2022/08/30 05:39:28;;;;;;;6.90;4.40;;;;;;;14.52;100.00;99228.44;5104554;28;20050;-84
2022/08/30 05:41:57;;;;;;;8.80;3.75;;;;;;;14.61;100.00;99228.28;5112609;28;20051;-85
2022/08/30 05:44:24;;;;;;;10.63;4.68;;;;;;;14.63;100.00;99221.56;5111045;28;20422;-85
2022/08/30 05:46:51;;;;;;;8.02;4.13;;;;;;;14.76;100.00;99222.59;5112384;28;20054;-85
2022/08/30 05:49:18;;;;;;;5.82;4.15;;;;;;;14.85;100.00;99216.69;5112576;28;20062;-84
2022/08/30 05:51:45;;;;;;;8.80;5.00;;;;;;;15.13;100.00;99221.09;5112388;27;20047;-85
2022/08/30 05:54:12;;;;;;;12.27;5.22;;;;;;;15.33;100.00;99214.72;5111311;28;20085;-85
2022/08/30 05:56:41;;;;;;;6.65;4.75;;;;;;;15.70;100.00;99193.94;5112187;27;20383;-85
2022/08/30 05:59:09;;;;;;;10.73;4.68;;;;;;;16.15;96.39;99211.44;5110667;28;20043;-85
2022/08/30 06:01:38;;;;;;;18.00;4.72;;;;;;;16.55;93.72;99195.56;5111734;28;20399;-85
2022/08/30 06:04:07;;;;;;;8.25;4.93;;;;;;;17.11;88.30;99210.28;5102748;28;20040;-85
2022/08/30 06:06:36;;;;;;;31.55;6.78;;;;;;;17.31;84.98;99204.63;5110598;28;20057;-85
2022/08/30 06:09:10;;;;;;;29.05;5.13;;;;;;;17.75;82.89;99212.78;5111457;28;20127;-83
2022/08/30 06:11:37;;;;;;;28.77;5.28;;;;;;;17.90;82.11;99219.78;5110898;27;20464;-84
2022/08/30 06:14:05;;;;;;;33.38;5.32;;;;;;;18.08;78.28;99200.53;5110190;28;20074;-84
2022/08/30 06:16:34;;;;;;;13.73;4.47;;;;;;;18.31;77.33;99224.53;5111361;28;20051;-85
2022/08/30 06:19:01;;;;;;;17.75;5.18;;;;;;;18.41;76.00;99196.41;5111649;27;20047;-85
2022/08/30 06:21:30;;;;;;;19.25;4.60;;;;;;;18.64;74.66;99225.94;5112322;28;20081;-85
2022/08/30 06:23:58;;;;;;;18.15;5.32;;;;;;;18.85;74.34;99232.81;5110687;28;20050;-84
2022/08/30 06:26:29;;;;;;;18.13;5.07;;;;;;;19.06;72.46;99212.13;5110418;28;20039;-84
2022/08/30 06:28:57;;;;;;;17.95;5.03;;;;;;;19.44;71.33;99227.31;5111441;27;20048;-84
2022/08/30 06:31:26;;;;;;;18.00;4.15;;;;;;;19.48;72.06;99238.72;5111318;28;20080;-84
2022/08/30 06:33:54;;;;;;;10.95;4.75;;;;;;;19.77;70.91;99220.31;5109574;28;20125;-85
2022/08/30 06:36:23;;;;;;;13.65;4.40;;;;;;;19.79;69.05;99209.03;5106858;28;20047;-85
2022/08/30 06:38:51;;;;;;;13.63;4.93;;;;;;;20.04;68.13;99210.63;5111342;27;20054;-84
2022/08/30 06:41:24;;;;;;;17.73;4.65;;;;;;;20.33;67.40;99217.00;5103193;28;20449;-83
2022/08/30 06:43:51;;;;;;;19.98;4.65;;;;;;;20.36;66.64;99188.06;5110582;28;20050;-86
2022/08/30 06:46:21;;;;;;;10.68;4.22;;;;;;;20.59;66.06;99201.72;5111401;28;20048;-84
2022/08/30 06:48:47;;;;;;;;;;;;;;;21.03;64.76;99217.66;5110281;28;20058;-84
2022/08/30 06:51:19;;;;;;;17.85;4.47;;;;;;;20.93;64.95;99198.16;5110504;28;19928;-84
2022/08/30 06:53:46;;;;;;;24.55;4.05;;;;;;;21.29;63.42;99212.53;5110205;28;20063;-85
2022/08/30 06:56:18;;;;;;;14.27;4.80;;;;;;;21.27;63.93;99220.22;5111169;27;20134;-87
2022/08/30 06:58:46;;;;;;;11.52;4.18;;;;;;;21.10;63.66;99211.97;5110856;28;20079;-85
2022/08/30 07:01:15;;;;;;;16.95;4.05;;;;;;;21.28;63.57;99210.84;5110753;27;20100;-85
2022/08/30 07:03:42;;;;;;;20.30;5.60;;;;;;;21.14;63.09;99197.38;5107657;27;20128;-85
2022/08/30 07:06:11;;;;;;;14.82;4.13;;;;;;;21.18;63.52;99200.47;5109771;28;20052;-85
2022/08/30 07:08:39;;;;;;;9.20;4.03;;;;;;;21.05;64.20;99209.97;5110992;28;20083;-85
2022/08/30 07:11:07;;;;;;;10.80;3.88;;;;;;;20.74;65.18;99194.81;5108767;28;20092;-85
2022/08/30 07:13:34;;;;;;;14.02;4.13;;;;;;;20.95;65.17;99187.69;5102953;28;20055;-85
2022/08/30 07:16:01;;;;;;;14.50;4.43;;;;;;;21.45;63.58;99206.09;5110831;28;20082;-85
2022/08/30 07:21:15;;;;;;;18.02;4.47;;;;;;;21.47;63.04;99211.38;5110606;28;20498;-85
2022/08/30 07:23:43;;;;;;;13.05;4.07;;;;;;;21.21;63.08;99189.75;5109517;28;21043;-85
2022/08/30 07:26:13;;;;;;;18.27;5.22;;;;;;;21.25;62.53;99195.59;5110061;28;20534;-85
2022/08/30 07:31:34;;;;;;;9.90;3.80;;;;;;;21.24;62.19;99190.31;5081605;28;20059;-85
2022/08/30 07:34:02;;;;;;;8.88;3.83;;;;;;;21.65;61.84;99194.53;5107528;28;20082;-85
2022/08/30 07:36:34;;;;;;;10.85;3.95;;;;;;;21.79;60.34;99208.81;5110298;28;20058;-85
2022/08/30 07:39:03;;;;;;;9.15;4.38;;;;;;;22.05;59.71;99204.38;5110797;28;20104;-85
2022/08/30 07:41:32;;;;;;;18.98;4.38;;;;;;;22.14;59.47;99209.47;5110151;28;20079;-85
2022/08/30 07:43:59;;;;;;;16.85;4.35;;;;;;;22.10;59.59;99195.34;5110123;27;20100;-85
2022/08/30 07:46:26;;;;;;;8.43;3.72;;;;;;;22.36;59.02;99206.72;5109353;28;20403;-85
2022/08/30 07:48:54;;;;;;;13.52;4.28;;;;;;;22.47;59.37;99202.09;5110535;28;20419;-85
2022/08/30 07:51:25;;;;;;;9.13;3.40;;;;;;;22.48;57.84;99200.97;5110256;28;20055;-85
2022/08/30 07:53:52;;;;;;;12.88;4.07;;;;;;;22.43;58.54;99197.09;5109658;28;20047;-85
2022/08/30 07:56:21;;;;;;;13.52;3.88;;;;;;;22.26;59.20;99210.97;5110446;28;20047;-85
2022/08/30 07:58:48;;;;;;;8.88;3.42;;;;;;;22.17;58.38;99204.25;5109700;27;20406;-85
2022/08/30 08:01:16;;;;;;;9.85;3.80;;;;;;;22.23;59.14;99216.22;5110407;28;20040;-85
2022/08/30 08:03:43;;;;;;;10.25;3.28;;;;;;;22.34;58.40;99212.50;5109535;28;20052;-85
2022/08/30 08:06:12;;;;;;;13.82;3.58;;;;;;;22.38;57.98;99218.34;5109023;28;20043;-85
2022/08/30 08:08:40;;;;;;;8.80;3.20;;;;;;;22.58;57.50;99214.94;5110231;28;20052;-85
2022/08/30 08:11:08;;;;;;;14.02;3.97;;;;;;;22.83;56.93;99199.66;5110366;28;20289;-85
2022/08/30 08:13:36;;;;;;;9.23;3.15;;;;;;;22.71;56.86;99200.66;5109409;28;20372;-85
2022/08/30 08:16:03;;;;;;;12.07;4.13;;;;;;;22.86;55.77;99199.13;5114059;28;20402;-85
2022/08/30 08:18:30;;;;;;;11.25;3.83;;;;;;;23.06;55.69;99188.16;5113409;28;20044;-85
2022/08/30 08:20:57;;;;;;;9.18;3.72;;;;;;;23.44;54.69;99202.88;5113640;28;20047;-85
2022/08/30 08:23:24;;;;;;;12.38;3.72;;;;;;;23.55;53.71;99209.31;5112710;28;20046;-84
2022/08/30 08:25:51;;;;;;;8.30;3.17;;;;;;;23.58;53.19;99196.84;5112915;28;20047;-84
2022/08/30 08:28:18;;;;;;;12.15;3.83;;;;;;;23.75;53.61;99210.50;5111469;28;20050;-85
2022/08/30 08:30:47;;;;;;;8.40;3.30;;;;;;;23.94;52.85;99197.84;5113026;28;20049;-84
2022/08/30 08:33:13;;;;;;;7.57;3.50;;;;;;;24.18;52.68;99194.59;5113082;28;20096;-85
2022/08/30 08:35:41;;;;;;;8.88;3.10;;;;;;;24.46;50.74;99207.13;5113118;28;20051;-85
2022/08/30 08:38:07;;;;;;;4.60;3.00;;;;;;;24.59;50.30;99189.13;5112787;28;20414;-85
2022/08/30 08:40:44;;;;;;;10.70;3.53;;;;;;;24.73;49.50;99189.41;5113168;28;20047;-85
2022/08/30 08:43:14;;;;;;;9.25;3.30;;;;;;;24.83;49.81;99192.19;5111661;28;20058;-84
2022/08/30 08:45:50;;;;;;;7.25;3.03;;;;;;;24.92;49.68;99193.28;5112790;28;20058;-83
2022/08/30 08:48:30;;;;;;;5.35;3.20;;;;;;;25.05;49.12;99191.03;5113525;28;20490;-84
2022/08/30 08:53:47;;;;;;;6.18;3.42;;;;;;;25.37;47.78;99190.75;5111504;28;20155;-85
2022/08/30 08:56:16;;;;;;;7.10;3.10;;;;;;;25.54;47.87;99187.63;5113488;27;20399;-85
2022/08/30 08:58:45;;;;;;;11.05;3.72;;;;;;;25.54;48.65;99181.22;5113300;28;20071;-82
2022/08/30 09:01:16;;;;;;;9.93;3.78;;;;;;;25.55;48.33;99174.56;5113170;28;20051;-83
2022/08/30 09:03:43;;;;;;;8.35;3.85;;;;;;;25.70;47.92;99191.19;5112328;28;20047;-84
2022/08/30 09:06:24;;;;;;;8.93;3.38;;;;;;;25.72;48.58;99171.44;5110697;28;20044;-85
2022/08/30 09:08:51;;;;;;;4.65;3.20;;;;;;;25.68;47.73;99162.78;5112625;28;20044;-85
2022/08/30 09:11:24;;;;;;;12.68;3.28;;;;;;;25.78;46.53;99173.06;5112866;28;20042;-85
2022/08/30 09:13:53;;;;;;;7.70;2.88;;;;;;;25.91;46.14;99172.44;5112028;27;20047;-85
2022/08/30 09:16:53;;;;;;;10.45;3.28;;;;;;;25.80;46.01;99156.91;5112808;28;20039;-85
2022/08/30 09:19:29;;;;;;;9.20;2.95;;;;;;;26.05;46.45;99169.06;5089679;28;20054;-85
2022/08/30 09:21:57;;;;;;;15.18;3.53;;;;;;;26.01;47.54;99160.44;5106152;27;20418;-82
2022/08/30 09:24:24;;;;;;;9.15;3.83;;;;;;;26.08;46.04;99166.53;5109566;28;20044;-85
2022/08/30 09:26:51;;;;;;;7.18;3.05;;;;;;;26.06;45.19;99152.06;5111758;28;20138;-85
2022/08/30 09:29:19;;;;;;;12.93;3.63;;;;;;;25.95;46.06;99161.56;5112307;28;20054;-85
2022/08/30 09:31:50;;;;;;;11.38;4.03;;;;;;;26.10;47.69;99161.50;5112212;28;20127;-85
2022/08/30 09:34:20;;;;;;;6.05;3.25;;;;;;;26.10;46.27;99155.91;5111716;28;20044;-84
2022/08/30 09:36:50;;;;;;;7.85;3.60;;;;;;;26.27;46.68;99161.13;5111485;27;20138;-85
2022/08/30 09:39:26;;;;;;;7.50;3.10;;;;;;;26.45;44.85;99148.47;5106397;28;20050;-85
2022/08/30 09:41:53;;;;;;;6.80;3.47;;;;;;;26.65;44.95;99147.44;5111927;28;20130;-84
2022/08/30 09:44:22;;;;;;;5.60;3.28;;;;;;;26.61;44.75;99149.16;5111315;28;20043;-85
2022/08/30 09:46:51;;;;;;;7.40;3.43;;;;;;;26.50;44.52;99131.69;5111805;28;20051;-83
2022/08/30 09:49:34;;;;;;;13.40;4.22;;;;;;;26.75;44.39;99142.94;5104676;28;20416;-84
2022/08/30 09:52:13;;;;;;;4.15;3.40;;;;;;;26.69;45.22;99150.50;5108928;28;20410;-84
2022/08/30 09:54:50;;;;;;;9.35;3.58;;;;;;;26.84;43.84;99141.16;5111032;28;20548;-85
2022/08/30 09:57:30;;;;;;;5.93;3.25;;;;;;;26.82;44.72;99144.25;5106829;28;20039;-85
2022/08/30 10:00:02;;;;;;;3.97;3.00;;;;;;;27.01;44.48;99132.38;5112120;28;20538;-85
2022/08/30 10:02:48;;;;;;;12.55;3.70;;;;;;;26.96;44.20;99135.19;5110989;28;20048;-85
2022/08/30 10:05:27;;;;;;;3.95;3.45;;;;;;;26.69;45.43;99135.75;5110505;28;20050;-85
2022/08/30 10:08:05;;;;;;;4.80;2.97;;;;;;;26.41;45.00;99125.06;5111102;28;20521;-84
2022/08/30 10:10:37;;;;;;;6.63;3.47;;;;;;;26.62;44.78;99125.72;5108276;28;20468;-85
2022/08/30 10:13:22;;;;;;;5.30;3.22;;;;;;;26.73;44.64;99118.13;5110952;28;20100;-85
2022/08/30 10:15:57;;;;;;;5.75;3.13;;;;;;;26.71;43.83;99112.03;5111444;28;20062;-85
2022/08/30 10:18:30;;;;;;;9.60;3.42;;;;;;;26.84;43.77;99116.94;5103537;28;20293;-85
2022/08/30 10:21:06;;;;;;;7.18;3.88;;;;;;;26.99;45.12;99115.94;5111582;28;20167;-86
2022/08/30 10:23:36;;;;;;;11.38;3.17;;;;;;;27.20;44.07;99119.34;5103196;28;20056;-85
2022/08/30 10:26:07;;;;;;;;;;;;;;;27.49;42.51;99110.09;5111559;28;20040;-85
2022/08/30 10:28:42;;;;;;;9.15;4.13;;;;;;;27.54;42.92;99098.03;5111491;28;19923;-85
2022/08/30 10:31:13;;;;;;;7.75;2.80;;;;;;;27.65;42.46;99098.72;5111161;28;20071;-85
2022/08/30 10:33:45;;;;;;;8.82;4.78;;;;;;;27.72;43.21;99093.59;5110768;28;20051;-85
2022/08/30 10:36:15;;;;;;;7.93;3.50;;;;;;;27.91;43.14;99085.22;5110390;28;20130;-85
2022/08/30 10:38:48;;;;;;;7.38;3.30;;;;;;;28.17;40.79;99102.47;5110272;28;20326;-84
2022/08/30 10:41:24;;;;;;;4.78;3.90;;;;;;;28.24;40.70;99086.16;5110834;28;20359;-85
2022/08/30 10:43:58;;;;;;;4.07;2.70;;;;;;;28.33;39.92;99091.03;5110449;28;20154;-83
2022/08/30 10:46:31;;;;;;;5.03;2.95;;;;;;;28.62;40.54;99088.06;5110642;27;20132;-84
2022/08/30 10:49:01;;;;;;;4.47;3.15;;;;;;;28.63;39.68;99089.72;5111056;28;20134;-85
2022/08/30 10:51:34;;;;;;;3.90;3.08;;;;;;;28.47;38.88;99077.09;5110755;28;20044;-85
2022/08/30 10:54:09;;;;;;;6.50;3.20;;;;;;;28.68;39.28;99074.81;5106504;28;20058;-85
2022/08/30 10:56:40;;;;;;;4.50;3.05;;;;;;;29.03;37.95;99070.50;5111206;28;20047;-85
2022/08/30 10:59:07;;;;;;;2.83;2.58;;;;;;;29.04;37.94;99072.19;5111037;28;20051;-86
2022/08/30 11:01:53;;;;;;;8.00;3.47;;;;;;;29.16;37.35;99076.41;5110700;28;20047;-85
2022/08/30 11:04:49;;;;;;;3.63;2.92;;;;;;;29.25;37.76;99060.59;5109377;28;20158;-84
2022/08/30 11:07:30;;;;;;;5.00;2.88;;;;;;;29.50;36.14;99075.22;5110494;28;20044;-86
2022/08/30 11:10:13;;;;;;;3.08;2.78;;;;;;;29.50;36.32;99072.41;5111421;27;20044;-85
2022/08/30 11:12:53;;;;;;;8.25;3.35;;;;;;;29.85;36.34;99083.97;5110844;28;20055;-85
2022/08/30 11:15:22;;;;;;;3.85;2.80;;;;;;;30.04;36.39;99081.03;5111188;28;20467;-85
2022/08/30 11:17:54;;;;;;;;;;;;;;;29.97;35.76;99084.25;5110771;27;20140;-84
2022/08/30 11:20:29;;;;;;;7.47;3.38;;;;;;;29.70;36.52;99076.72;5110024;28;20270;-85
2022/08/30 11:23:20;;;;;;;5.55;3.10;;;;;;;29.26;37.88;99067.84;5110737;28;20126;-84
2022/08/30 11:25:49;;;;;;;11.30;2.75;;;;;;;29.43;37.42;99070.00;5111411;28;20187;-86
2022/08/30 11:28:49;;;;;;;6.63;3.35;;;;;;;29.36;37.38;99076.03;5110635;28;20479;-84
2022/08/30 11:31:36;;;;;;;6.90;3.45;;;;;;;29.21;37.36;99063.19;5108120;28;20040;-84
2022/08/30 11:34:04;;;;;;;4.65;3.05;;;;;;;29.33;37.02;99073.03;5104227;28;20040;-85
2022/08/30 11:37:02;;;;;;;6.15;3.03;;;;;;;29.45;37.15;99071.38;5109905;28;20040;-84
2022/08/30 11:39:55;;;;;;;5.88;3.20;;;;;;;29.26;36.72;99060.28;5086301;27;20491;-83
2022/08/30 11:42:36;;;;;;;4.28;3.38;;;;;;;29.27;36.87;99075.94;5107480;27;20048;-87
2022/08/30 11:45:41;;;;;;;8.10;2.97;;;;;;;29.16;36.68;99070.81;5111505;28;20138;-84
2022/08/30 11:48:29;;;;;;;4.85;2.88;;;;;;;29.07;37.00;99049.19;5109410;28;20135;-85
2022/08/30 11:51:04;;;;;;;5.82;3.05;;;;;;;29.20;37.50;99066.28;5112532;27;20046;-84